Time;durP1;ratioP1;P1;durP2;ratioP2;P2;SDS_P1;SDS_P2;PMS_P1;PMS_P2;Temp;Humidity;BMP_temperature;BMP_pressure;BME280_temperature;BME280_humidity;BME280_pressure;Samples;Min_cycle;Max_cycle;Signal;HPM_P1;HPM_P2
2023/12/30 00:00:50;;;;;;;0.20;0.20;;;;;;;8.80;69.34;96866.44;5006884;28;20069;-73
2023/12/30 00:03:18;;;;;;;0.30;0.30;;;;;;;8.80;69.71;96879.75;5007258;28;20050;-75
2023/12/30 00:05:45;;;;;;;0.30;0.30;;;;;;;8.73;70.19;96881.56;4984279;28;20409;-73
2023/12/30 00:08:13;;;;;;;0.32;0.32;;;;;;;8.70;70.35;96874.00;5005740;28;20109;-73
2023/12/30 00:10:40;;;;;;;0.30;0.30;;;;;;;8.66;70.60;96868.25;4988777;28;20525;-72
2023/12/30 00:13:08;;;;;;;0.38;0.38;;;;;;;8.66;70.57;96870.09;5009859;28;20112;-74
2023/12/30 00:15:35;;;;;;;0.30;0.30;;;;;;;8.68;70.58;96855.56;5003555;28;20042;-72
2023/12/30 00:18:05;;;;;;;0.10;0.10;;;;;;;8.66;70.68;96870.09;4999961;28;20045;-72
2023/12/30 00:20:32;;;;;;;0.63;0.30;;;;;;;8.66;70.90;96844.31;4994544;28;20046;-73
2023/12/30 00:23:00;;;;;;;0.30;0.30;;;;;;;8.65;71.00;96855.16;4996584;28;20066;-72
2023/12/30 00:25:28;;;;;;;0.50;0.50;;;;;;;8.65;70.85;96857.81;4998835;28;20082;-72
2023/12/30 00:27:56;;;;;;;0.20;0.20;;;;;;;8.65;70.88;96868.44;4997541;28;20457;-71
2023/12/30 00:30:24;;;;;;;0.15;0.15;;;;;;;8.60;71.32;96863.75;4982610;28;20425;-71
2023/12/30 00:32:51;;;;;;;0.30;0.30;;;;;;;8.60;71.51;96858.41;4987465;28;20053;-71
2023/12/30 00:35:21;;;;;;;0.30;0.30;;;;;;;8.59;71.77;96850.63;4981338;28;20057;-71
2023/12/30 00:37:49;;;;;;;0.20;0.20;;;;;;;8.56;71.80;96853.69;4996553;28;20136;-75
2023/12/30 00:40:16;;;;;;;0.22;0.22;;;;;;;8.54;72.25;96848.56;4980626;28;20055;-72
2023/12/30 00:42:53;;;;;;;0.17;0.17;;;;;;;8.54;72.42;96853.06;4986015;28;20504;-73
2023/12/30 00:45:21;;;;;;;0.22;0.22;;;;;;;8.56;72.18;96848.38;4988300;28;20042;-74
2023/12/30 00:47:49;;;;;;;0.25;0.25;;;;;;;8.57;72.30;96850.00;5009068;28;20045;-73
2023/12/30 00:50:16;;;;;;;0.35;0.35;;;;;;;8.55;72.32;96857.38;5007145;28;20070;-73
2023/12/30 00:52:45;;;;;;;0.20;0.20;;;;;;;8.54;72.60;96869.84;4991473;28;20053;-73
2023/12/30 00:55:13;;;;;;;0.20;0.20;;;;;;;8.57;72.97;96869.44;5000328;28;20406;-75
2023/12/30 00:57:41;;;;;;;0.20;0.20;;;;;;;8.49;73.18;96879.44;4980076;28;20057;-72
2023/12/30 01:00:09;;;;;;;0.10;0.10;;;;;;;8.48;73.36;96864.50;4995878;28;20046;-72
2023/12/30 01:02:37;;;;;;;0.22;0.22;;;;;;;8.48;73.69;96885.78;5000879;28;20085;-72
2023/12/30 01:05:05;;;;;;;0.20;0.20;;;;;;;8.50;73.40;96881.91;4981630;28;20052;-72
2023/12/30 01:07:34;;;;;;;0.20;0.20;;;;;;;8.48;73.33;96868.00;4999460;28;20400;-72
2023/12/30 01:10:04;;;;;;;0.20;0.20;;;;;;;8.48;73.04;96872.50;5003271;28;20405;-72
2023/12/30 01:12:31;;;;;;;0.30;0.30;;;;;;;8.44;73.19;96872.06;4980359;28;20406;-71
2023/12/30 01:14:59;;;;;;;0.10;0.10;;;;;;;8.45;72.94;96861.22;4980079;28;20580;-73
2023/12/30 01:17:26;;;;;;;0.17;0.17;;;;;;;8.47;72.66;96890.28;4978043;28;20084;-73
2023/12/30 01:19:54;;;;;;;0.30;0.30;;;;;;;8.45;72.68;96893.13;4993504;28;20128;-73
2023/12/30 01:22:22;;;;;;;0.20;0.20;;;;;;;8.45;72.60;96894.97;4993119;28;20054;-73
2023/12/30 01:24:49;;;;;;;0.20;0.20;;;;;;;8.50;72.28;96908.50;4997664;28;20053;-72
2023/12/30 01:27:18;;;;;;;0.30;0.30;;;;;;;8.49;72.28;96908.69;4980185;28;20105;-73
2023/12/30 01:29:46;;;;;;;0.28;0.28;;;;;;;8.46;72.25;96929.34;4993658;28;20042;-74
2023/12/30 01:32:13;;;;;;;0.30;0.30;;;;;;;8.46;72.13;96923.22;4993328;28;20050;-72
2023/12/30 01:34:41;;;;;;;0.22;0.22;;;;;;;8.44;71.98;96910.09;4984866;28;20053;-74
2023/12/30 01:37:09;;;;;;;0.25;0.25;;;;;;;8.44;71.99;96918.09;4996616;28;20042;-71
2023/12/30 01:39:36;;;;;;;0.20;0.20;;;;;;;8.43;71.83;96911.13;4979624;28;20046;-76
2023/12/30 01:42:04;;;;;;;0.20;0.20;;;;;;;8.37;72.13;96919.91;4982855;28;20133;-74
2023/12/30 01:44:33;;;;;;;0.30;0.30;;;;;;;8.38;71.96;96913.56;4977004;28;20054;-74
2023/12/30 01:47:01;;;;;;;0.30;0.30;;;;;;;8.33;71.88;96915.16;4975604;28;20494;-74
2023/12/30 01:49:29;;;;;;;0.30;0.30;;;;;;;8.31;71.78;96917.16;5002236;28;20054;-72
2023/12/30 01:51:57;;;;;;;0.50;0.50;;;;;;;8.29;71.77;96924.53;4977543;28;20042;-73
2023/12/30 01:54:24;;;;;;;0.20;0.20;;;;;;;8.29;71.76;96930.69;4985925;28;20052;-71
2023/12/30 01:56:52;;;;;;;0.35;0.35;;;;;;;8.32;71.91;96916.19;4996905;28;20038;-72
2023/12/30 01:59:21;;;;;;;0.10;0.10;;;;;;;8.35;71.66;96927.25;4975288;28;20061;-73
2023/12/30 02:01:50;;;;;;;0.20;0.20;;;;;;;8.29;71.89;96904.09;4986080;28;20832;-73
2023/12/30 02:04:17;;;;;;;0.30;0.30;;;;;;;8.28;72.16;96915.75;4982668;28;20046;-73
2023/12/30 02:06:45;;;;;;;0.28;0.28;;;;;;;8.29;72.35;96932.50;4986202;28;20076;-73
2023/12/30 02:09:13;;;;;;;0.22;0.22;;;;;;;8.29;72.64;96936.00;4974147;28;20171;-71
2023/12/30 02:11:42;;;;;;;0.30;0.30;;;;;;;8.33;72.56;96941.75;4977068;28;20042;-72
2023/12/30 02:14:23;;;;;;;0.38;0.38;;;;;;;8.31;72.47;96941.94;4982166;28;20420;-71
2023/12/30 02:16:51;;;;;;;0.20;0.20;;;;;;;8.31;72.43;96941.94;4995782;28;20046;-74
2023/12/30 02:19:19;;;;;;;0.20;0.20;;;;;;;8.33;72.41;96933.78;4974014;28;20085;-75
2023/12/30 02:21:47;;;;;;;0.20;0.20;;;;;;;8.31;72.16;96933.09;4977822;28;20046;-73
2023/12/30 02:24:16;;;;;;;0.30;0.30;;;;;;;8.29;72.11;96933.34;4983461;28;20089;-74
2023/12/30 02:26:43;;;;;;;0.20;0.20;;;;;;;8.27;72.32;96926.56;4997016;28;20367;-75
2023/12/30 02:29:11;;;;;;;0.20;0.20;;;;;;;8.25;72.27;96926.75;4996180;28;20638;-71
2023/12/30 02:31:45;;;;;;;0.20;0.20;;;;;;;8.25;72.64;96931.25;4993006;28;20407;-71
2023/12/30 02:34:14;;;;;;;0.28;0.28;;;;;;;8.29;72.45;96932.50;4973517;28;20529;-72
2023/12/30 02:36:43;;;;;;;0.20;0.20;;;;;;;8.19;72.46;96934.69;4973308;28;20612;-71
2023/12/30 02:39:10;;;;;;;0.28;0.28;;;;;;;8.15;72.87;96923.63;4997629;28;20058;-72
2023/12/30 02:41:40;;;;;;;0.10;0.10;;;;;;;8.11;73.15;96914.41;4982260;28;20043;-71
2023/12/30 02:44:07;;;;;;;0.20;0.20;;;;;;;8.03;73.52;96914.56;4979457;28;20137;-71
2023/12/30 02:46:35;;;;;;;0.20;0.20;;;;;;;8.07;73.01;96921.97;4994853;28;20489;-71
2023/12/30 02:49:06;;;;;;;0.20;0.20;;;;;;;8.06;72.90;96922.16;4988098;28;20100;-73
2023/12/30 02:51:37;;;;;;;0.22;0.22;;;;;;;8.01;72.88;96911.28;4985496;28;20162;-73
2023/12/30 02:54:05;;;;;;;0.32;0.32;;;;;;;7.96;73.54;96919.03;4993030;28;20093;-74
2023/12/30 02:56:32;;;;;;;0.13;0.13;;;;;;;7.94;73.19;96926.38;4987986;28;20065;-75
2023/12/30 02:59:02;;;;;;;0.20;0.20;;;;;;;7.89;73.61;96934.13;5005818;28;20295;-73
2023/12/30 03:01:31;;;;;;;0.28;0.28;;;;;;;7.87;73.74;96931.66;4995702;28;20058;-72
2023/12/30 03:04:01;;;;;;;0.25;0.25;;;;;;;7.83;73.81;96937.53;4993453;28;20043;-72
2023/12/30 03:06:30;;;;;;;0.20;0.20;;;;;;;7.82;74.08;96936.69;4991267;28;20046;-72
2023/12/30 03:08:57;;;;;;;0.30;0.30;;;;;;;7.76;74.40;96918.06;4982264;28;20042;-73
2023/12/30 03:11:25;;;;;;;0.20;0.20;;;;;;;7.73;74.54;96927.25;5001407;28;20073;-72
2023/12/30 03:13:55;;;;;;;0.30;0.30;;;;;;;7.70;74.69;96932.94;4987802;28;20468;-72
2023/12/30 03:16:25;;;;;;;0.20;0.20;;;;;;;7.66;74.96;96943.13;5010487;28;20042;-72
2023/12/30 03:18:52;;;;;;;0.10;0.10;;;;;;;7.67;74.96;96939.47;4988250;28;20073;-73
2023/12/30 03:21:20;;;;;;;0.30;0.30;;;;;;;7.73;75.03;96946.66;5012811;28;20120;-73
2023/12/30 03:23:48;;;;;;;0.38;0.38;;;;;;;7.70;74.98;96944.38;4998839;28;20076;-72
2023/12/30 03:26:16;;;;;;;0.20;0.20;;;;;;;7.69;75.21;96941.91;5015165;28;20402;-72
2023/12/30 03:28:44;;;;;;;0.20;0.20;;;;;;;7.68;75.32;96938.44;5015033;28;20078;-72
2023/12/30 03:31:20;;;;;;;0.20;0.20;;;;;;;7.72;75.19;96942.34;4979397;28;20073;-72
2023/12/30 03:33:49;;;;;;;0.20;0.20;;;;;;;7.77;74.82;96947.09;4992045;28;20046;-73
2023/12/30 03:36:17;;;;;;;0.30;0.30;;;;;;;7.80;74.96;96951.19;5012988;28;20038;-72
2023/12/30 03:38:46;;;;;;;0.20;0.20;;;;;;;7.82;74.67;96944.66;5008392;28;20500;-73
2023/12/30 03:41:14;;;;;;;0.10;0.10;;;;;;;7.84;75.44;96944.47;4980763;28;20421;-72
2023/12/30 03:43:42;;;;;;;0.30;0.30;;;;;;;7.88;75.34;96953.72;4975128;28;20145;-72
2023/12/30 03:46:09;;;;;;;0.30;0.30;;;;;;;7.90;75.06;96946.34;4987859;28;20105;-73
2023/12/30 03:48:36;;;;;;;0.30;0.30;;;;;;;7.89;74.82;96952.72;4990541;28;20045;-71
2023/12/30 03:51:06;;;;;;;0.20;0.20;;;;;;;7.89;74.58;96942.09;4993699;28;20054;-71
2023/12/30 03:53:34;;;;;;;0.20;0.20;;;;;;;7.87;74.52;96962.69;4998915;28;20053;-72
2023/12/30 03:56:02;;;;;;;0.32;0.32;;;;;;;7.88;74.56;96965.16;4992680;28;20089;-72
2023/12/30 03:58:30;;;;;;;0.30;0.30;;;;;;;7.85;74.43;96954.91;4995332;28;20054;-73
2023/12/30 04:00:57;;;;;;;0.10;0.10;;;;;;;7.84;74.32;96971.03;4975801;28;20051;-74
2023/12/30 04:03:25;;;;;;;0.30;0.30;;;;;;;7.86;73.74;96963.72;4998698;28;20046;-71
2023/12/30 04:05:53;;;;;;;0.30;0.30;;;;;;;7.83;74.23;96978.19;4989470;28;20042;-71
2023/12/30 04:08:22;;;;;;;0.30;0.30;;;;;;;7.91;73.72;96987.84;4981575;28;20520;-72
2023/12/30 04:10:49;;;;;;;0.30;0.30;;;;;;;7.82;73.88;96983.69;4995991;28;20076;-72
2023/12/30 04:13:17;;;;;;;0.35;0.35;;;;;;;7.78;73.82;96985.13;4992362;28;20050;-74
2023/12/30 04:15:44;;;;;;;0.20;0.20;;;;;;;7.73;74.23;96990.97;4979458;28;20502;-72
2023/12/30 04:18:13;;;;;;;0.20;0.20;;;;;;;7.71;74.38;96985.88;4976232;28;20060;-71
2023/12/30 04:20:41;;;;;;;0.45;0.45;;;;;;;7.72;74.96;96997.31;4979004;28;20100;-72
2023/12/30 04:23:08;;;;;;;0.20;0.20;;;;;;;7.72;75.24;96992.81;4988011;28;20428;-72
2023/12/30 04:25:38;;;;;;;0.20;0.20;;;;;;;7.65;76.07;96997.25;4995267;28;20097;-72
2023/12/30 04:28:06;;;;;;;0.10;0.10;;;;;;;7.66;75.88;97001.56;4976802;28;20070;-72
2023/12/30 04:30:34;;;;;;;0.20;0.20;;;;;;;7.63;76.29;96991.31;4976520;28;20041;-72
2023/12/30 04:33:03;;;;;;;0.20;0.20;;;;;;;7.66;76.06;96996.25;4978859;28;20053;-72
2023/12/30 04:35:34;;;;;;;0.32;0.32;;;;;;;7.62;76.26;96991.50;4979399;28;20080;-74
2023/12/30 04:38:02;;;;;;;0.20;0.20;;;;;;;7.59;76.39;96992.69;5005692;28;20035;-74
2023/12/30 04:40:30;;;;;;;0.30;0.30;;;;;;;7.62;75.74;96999.47;5001100;28;20533;-71
2023/12/30 04:42:59;;;;;;;0.38;0.38;;;;;;;7.62;76.16;96988.84;4972914;28;20042;-72
2023/12/30 04:45:27;;;;;;;0.20;0.20;;;;;;;7.61;76.14;96996.00;4976460;28;20052;-72
2023/12/30 04:47:54;;;;;;;0.30;0.30;;;;;;;7.60;76.41;96991.69;4977702;28;20137;-72
2023/12/30 04:50:23;;;;;;;0.30;0.30;;;;;;;7.61;76.31;97003.97;4987585;28;20057;-71
2023/12/30 04:52:51;;;;;;;0.32;0.32;;;;;;;7.59;76.35;96983.91;4991351;28;20426;-72
2023/12/30 04:55:19;;;;;;;0.20;0.20;;;;;;;7.53;76.80;96993.47;4988444;28;20057;-73
2023/12/30 04:57:47;;;;;;;0.30;0.30;;;;;;;7.49;76.84;97000.16;4983052;28;20137;-73
2023/12/30 05:00:18;;;;;;;0.10;0.10;;;;;;;7.51;76.86;96998.13;4989091;28;20117;-72
2023/12/30 05:02:49;;;;;;;0.13;0.13;;;;;;;7.42;76.90;97001.13;4976084;28;20061;-74
2023/12/30 05:05:17;;;;;;;0.38;0.38;;;;;;;7.43;77.16;97018.69;5001753;28;20115;-72
2023/12/30 05:07:46;;;;;;;0.20;0.20;;;;;;;7.42;77.43;97009.06;4959233;28;20043;-73
2023/12/30 05:10:14;;;;;;;0.40;0.40;;;;;;;7.38;77.62;97017.41;4974763;28;20074;-73
2023/12/30 05:12:42;;;;;;;0.20;0.20;;;;;;;7.34;77.70;97023.31;4996531;28;20061;-73
2023/12/30 05:15:12;;;;;;;0.20;0.20;;;;;;;7.33;77.32;97021.66;5051884;22;20042;-72
2023/12/30 05:17:41;;;;;;;0.25;0.25;;;;;;;7.34;77.36;97021.47;5030842;28;20044;-72
2023/12/30 05:20:12;;;;;;;0.30;0.30;;;;;;;7.35;77.08;97020.47;5031362;28;20415;-72
2023/12/30 05:22:40;;;;;;;0.32;0.32;;;;;;;7.32;77.37;97015.53;5031055;28;20459;-73
2023/12/30 05:25:09;;;;;;;0.20;0.20;;;;;;;7.34;77.08;97007.38;5031255;28;20050;-73
2023/12/30 05:27:37;;;;;;;0.40;0.40;;;;;;;7.32;76.92;97014.69;5032461;28;20113;-72
2023/12/30 05:30:07;;;;;;;0.47;0.47;;;;;;;7.35;76.61;97015.16;5032840;28;20067;-73
2023/12/30 05:32:35;;;;;;;0.20;0.20;;;;;;;7.34;76.81;97028.63;5031582;28;20073;-72
2023/12/30 05:35:05;;;;;;;0.30;0.30;;;;;;;7.33;76.54;97008.38;5028397;28;20091;-72
2023/12/30 05:37:32;;;;;;;0.40;0.40;;;;;;;7.32;76.68;97014.69;5029896;28;20455;-72
2023/12/30 05:40:00;;;;;;;0.20;0.20;;;;;;;7.27;77.09;97033.00;5030825;28;20052;-72
2023/12/30 05:42:28;;;;;;;0.30;0.30;;;;;;;7.26;76.85;97036.69;5034019;28;20045;-72
2023/12/30 05:44:55;;;;;;;0.20;0.20;;;;;;;7.23;77.08;97039.72;5030197;28;20052;-72
2023/12/30 05:47:23;;;;;;;0.17;0.17;;;;;;;7.23;77.02;97039.72;5029882;28;20137;-72
2023/12/30 05:49:51;;;;;;;0.32;0.32;;;;;;;7.22;76.83;97056.66;5037337;28;20049;-72
2023/12/30 05:52:20;;;;;;;0.25;0.25;;;;;;;7.19;76.59;97051.72;5030348;28;20061;-72
2023/12/30 05:54:48;;;;;;;0.20;0.20;;;;;;;7.16;76.59;97057.41;5030857;28;20037;-71
2023/12/30 05:57:15;;;;;;;0.20;0.20;;;;;;;7.10;77.07;97055.47;5031175;28;20065;-71
2023/12/30 05:59:43;;;;;;;0.20;0.20;;;;;;;7.09;77.09;97065.28;5029139;28;20791;-71
2023/12/30 06:02:11;;;;;;;0.30;0.30;;;;;;;7.09;76.93;97061.78;5031033;28;20045;-71
2023/12/30 06:04:40;;;;;;;0.30;0.30;;;;;;;7.09;77.00;97059.97;5030550;28;20391;-71
2023/12/30 06:07:07;;;;;;;0.30;0.30;;;;;;;7.05;77.04;97076.47;5030409;28;20459;-71
2023/12/30 06:09:37;;;;;;;0.20;0.20;;;;;;;7.00;77.20;97074.34;5031517;28;20520;-71
2023/12/30 06:12:05;;;;;;;0.30;0.30;;;;;;;6.99;77.09;97073.53;5033016;28;20501;-71
2023/12/30 06:14:33;;;;;;;0.30;0.30;;;;;;;6.97;76.97;97075.53;5036460;28;20120;-71
2023/12/30 06:17:01;;;;;;;0.20;0.20;;;;;;;6.98;76.78;97085.13;5036573;28;20120;-71
2023/12/30 06:19:29;;;;;;;0.30;0.30;;;;;;;6.97;77.04;97080.00;5037535;28;20120;-71
2023/12/30 06:21:56;;;;;;;0.40;0.38;;;;;;;7.00;76.77;97085.78;5038080;28;20049;-71
2023/12/30 06:24:26;;;;;;;0.30;0.30;;;;;;;7.07;76.40;97083.19;5039205;28;20049;-71
2023/12/30 06:26:55;;;;;;;0.20;0.20;;;;;;;7.15;75.91;97077.81;5038008;28;20116;-71
2023/12/30 06:29:25;;;;;;;0.28;0.28;;;;;;;7.16;76.27;97079.47;5037415;28;20045;-71
2023/12/30 06:31:55;;;;;;;0.30;0.30;;;;;;;7.27;75.78;97078.94;5036406;28;20048;-71
2023/12/30 06:34:23;;;;;;;0.30;0.30;;;;;;;7.24;75.96;97089.13;5035310;28;20049;-71
2023/12/30 06:36:51;;;;;;;0.40;0.40;;;;;;;7.25;75.81;97090.78;5035896;28;20053;-73
2023/12/30 06:39:20;;;;;;;0.20;0.20;;;;;;;7.29;75.39;97097.34;5036317;28;20037;-71
2023/12/30 06:41:47;;;;;;;0.20;0.20;;;;;;;7.27;75.59;97100.19;5028376;28;20045;-71
2023/12/30 06:44:16;;;;;;;0.25;0.25;;;;;;;7.30;75.60;97099.00;5035746;28;20056;-73
2023/12/30 06:46:44;;;;;;;0.17;0.17;;;;;;;7.29;75.54;97103.47;5033434;28;20045;-72
2023/12/30 06:49:11;;;;;;;0.20;0.20;;;;;;;7.32;75.38;97107.59;5037038;28;20038;-71
2023/12/30 06:51:39;;;;;;;0.30;0.30;;;;;;;7.30;75.20;97113.09;5034665;28;20037;-72
2023/12/30 06:54:07;;;;;;;0.35;0.35;;;;;;;7.30;75.62;97106.97;5035035;28;20084;-72
2023/12/30 06:56:36;;;;;;;0.17;0.17;;;;;;;7.33;75.09;97114.56;5036643;28;20049;-72
2023/12/30 06:59:03;;;;;;;0.30;0.30;;;;;;;7.35;74.95;97126.66;5036821;28;20053;-71
2023/12/30 07:01:37;;;;;;;0.20;0.20;;;;;;;7.35;74.96;97123.16;5036172;28;20072;-72
2023/12/30 07:04:05;;;;;;;0.40;0.40;;;;;;;7.35;74.72;97117.84;5038419;28;20407;-71
2023/12/30 07:06:32;;;;;;;0.30;0.30;;;;;;;7.37;74.76;97123.81;5039053;28;20488;-71
2023/12/30 07:09:00;;;;;;;0.30;0.30;;;;;;;7.37;74.71;97124.59;5036971;28;20033;-72
2023/12/30 07:11:28;;;;;;;0.30;0.30;;;;;;;7.38;74.82;97126.25;5036269;28;20045;-72
2023/12/30 07:13:55;;;;;;;0.32;0.32;;;;;;;7.40;75.08;97134.03;5036599;28;20132;-73
2023/12/30 07:16:23;;;;;;;0.30;0.30;;;;;;;7.43;74.69;97143.47;5036270;28;20046;-70
2023/12/30 07:18:52;;;;;;;0.40;0.40;;;;;;;7.44;74.52;97142.47;5032077;28;20049;-70
2023/12/30 07:21:20;;;;;;;0.30;0.30;;;;;;;7.43;74.54;97149.59;5035902;28;20051;-73
2023/12/30 07:23:47;;;;;;;0.20;0.20;;;;;;;7.45;74.51;97158.22;5032945;28;20516;-72
2023/12/30 07:26:15;;;;;;;0.30;0.30;;;;;;;7.44;74.69;97156.56;5032769;28;20408;-72
2023/12/30 07:28:43;;;;;;;0.20;0.20;;;;;;;7.41;74.54;97161.41;5032718;28;20040;-70
2023/12/30 07:31:10;;;;;;;0.20;0.20;;;;;;;7.43;74.37;97172.66;5033672;28;20041;-70
2023/12/30 07:33:38;;;;;;;0.20;0.20;;;;;;;7.49;73.48;97172.75;5033400;28;20049;-72
2023/12/30 07:36:08;;;;;;;0.20;0.20;;;;;;;7.50;73.39;97178.88;5030963;28;20111;-70
2023/12/30 07:38:35;;;;;;;0.20;0.20;;;;;;;7.43;73.69;97191.25;5032986;28;20034;-71
2023/12/30 07:41:03;;;;;;;0.30;0.30;;;;;;;7.38;74.32;97189.97;5033366;28;20083;-71
2023/12/30 07:43:30;;;;;;;0.20;0.20;;;;;;;7.37;73.65;97196.28;5036884;28;20042;-71
2023/12/30 07:45:58;;;;;;;0.30;0.30;;;;;;;7.41;73.19;97183.47;5032539;28;20121;-72
2023/12/30 07:48:29;;;;;;;0.30;0.30;;;;;;;7.43;73.25;97191.25;5029108;28;20037;-72
2023/12/30 07:50:56;;;;;;;0.30;0.30;;;;;;;7.39;73.26;97204.06;5027328;28;20050;-72
2023/12/30 07:53:25;;;;;;;0.50;0.50;;;;;;;7.34;73.49;97198.50;5029745;28;20042;-73
2023/12/30 07:55:53;;;;;;;0.25;0.25;;;;;;;7.35;73.43;97186.88;5031956;28;20068;-74
2023/12/30 07:58:20;;;;;;;0.30;0.30;;;;;;;7.37;73.51;97201.59;5029572;28;20095;-73
2023/12/30 08:00:48;;;;;;;0.30;0.30;;;;;;;7.37;73.38;97211.41;5031032;28;20053;-73
2023/12/30 08:03:16;;;;;;;0.50;0.30;;;;;;;7.35;73.43;97216.91;5027005;28;20033;-72
2023/12/30 08:05:43;;;;;;;0.30;0.30;;;;;;;7.39;73.71;97214.69;5030307;28;20057;-73
2023/12/30 08:08:12;;;;;;;0.38;0.38;;;;;;;7.48;73.86;97216.22;5025102;28;20041;-72
2023/12/30 08:10:41;;;;;;;0.55;0.55;;;;;;;7.44;74.12;97214.97;5026501;28;20053;-72
2023/12/30 08:13:08;;;;;;;0.20;0.20;;;;;;;7.39;74.66;97222.66;5033121;28;20593;-73
2023/12/30 08:15:36;;;;;;;0.20;0.20;;;;;;;7.47;74.89;97224.41;5031512;28;20064;-72
2023/12/30 08:18:07;;;;;;;0.40;0.40;;;;;;;7.41;75.44;97220.63;5027065;28;20061;-72
2023/12/30 08:24:13;;;;;;;0.20;0.20;;;;;;;7.36;76.01;97223.03;5024218;28;20045;-71
2023/12/30 08:31:00;;;;;;;0.20;0.20;;;;;;;7.41;76.19;97228.59;5014339;28;20049;-71
2023/12/30 08:33:32;;;;;;;0.43;0.43;;;;;;;7.35;76.50;97237.31;5055594;22;20205;-71
2023/12/30 08:36:00;;;;;;;0.20;0.20;;;;;;;7.31;77.40;97241.34;5032297;28;20045;-71
2023/12/30 08:38:31;;;;;;;0.30;0.30;;;;;;;7.32;77.38;97251.78;5031557;28;20492;-71
2023/12/30 08:40:59;;;;;;;0.20;0.20;;;;;;;7.32;77.43;97248.28;5038531;28;20045;-72
2023/12/30 08:43:28;;;;;;;0.30;0.30;;;;;;;7.30;77.30;97250.28;5040289;28;20501;-72
2023/12/30 08:45:55;;;;;;;0.40;0.40;;;;;;;7.30;78.08;97252.94;5021829;28;20042;-72
2023/12/30 08:48:23;;;;;;;0.40;0.40;;;;;;;7.31;77.78;97265.22;5013861;28;20046;-72
2023/12/30 08:50:51;;;;;;;0.20;0.20;;;;;;;7.36;78.21;97262.84;5021757;28;20080;-72
2023/12/30 08:53:24;;;;;;;0.40;0.40;;;;;;;7.45;77.90;97263.59;5018544;28;20222;-72
2023/12/30 08:55:52;;;;;;;0.35;0.35;;;;;;;7.43;77.86;97258.47;5018082;28;20052;-72
2023/12/30 08:58:21;;;;;;;0.30;0.30;;;;;;;7.41;78.09;97255.16;5006639;28;20133;-72
2023/12/30 09:00:50;;;;;;;0.30;0.30;;;;;;;7.36;78.89;97253.06;5005209;28;20053;-72
2023/12/30 09:03:18;;;;;;;0.22;0.22;;;;;;;7.28;79.25;97253.13;5013855;28;20831;-72
2023/12/30 09:05:47;;;;;;;0.30;0.30;;;;;;;7.30;79.52;97256.44;5020999;28;20042;-72
2023/12/30 09:08:14;;;;;;;0.35;0.35;;;;;;;7.35;79.40;97248.75;5010102;28;20054;-72
2023/12/30 09:10:42;;;;;;;0.40;0.40;;;;;;;7.47;79.28;97251.78;5017302;28;20117;-72
2023/12/30 09:13:10;;;;;;;0.63;0.63;;;;;;;7.41;79.79;97252.50;5015053;28;20050;-72
2023/12/30 09:15:38;;;;;;;0.30;0.30;;;;;;;7.47;79.77;97258.94;5019184;28;20054;-72
2023/12/30 09:18:07;;;;;;;0.20;0.20;;;;;;;7.42;79.85;97258.63;5019473;28;20056;-72
2023/12/30 09:20:40;;;;;;;0.30;0.30;;;;;;;7.45;79.94;97268.91;5009147;28;20046;-72
2023/12/30 09:23:07;;;;;;;0.30;0.30;;;;;;;7.46;80.31;97265.25;5013972;28;20131;-72
2023/12/30 09:25:35;;;;;;;0.13;0.13;;;;;;;7.48;79.92;97258.72;5004308;28;20118;-72
2023/12/30 09:28:03;;;;;;;0.20;0.20;;;;;;;7.51;79.62;97258.34;5012582;28;20042;-72
2023/12/30 09:30:31;;;;;;;0.22;0.22;;;;;;;7.55;79.85;97266.78;5004872;28;20046;-72
2023/12/30 09:32:58;;;;;;;0.30;0.30;;;;;;;7.54;79.63;97258.00;5002963;28;20495;-72
2023/12/30 09:35:28;;;;;;;0.40;0.40;;;;;;;7.47;79.77;97264.22;5011476;28;20517;-72
2023/12/30 09:37:56;;;;;;;0.57;0.57;;;;;;;7.49;79.41;97265.69;5013003;28;20050;-72
2023/12/30 09:40:23;;;;;;;0.30;0.30;;;;;;;7.54;79.27;97262.47;5006068;28;20116;-72
2023/12/30 09:42:51;;;;;;;0.30;0.30;;;;;;;7.59;78.81;97268.88;5006243;28;20420;-72
2023/12/30 09:45:20;;;;;;;0.20;0.20;;;;;;;7.64;77.72;97261.19;5007302;28;20053;-72
2023/12/30 09:47:48;;;;;;;0.35;0.35;;;;;;;7.71;76.79;97275.38;5014269;28;21317;-72
2023/12/30 09:50:16;;;;;;;0.43;0.43;;;;;;;7.72;76.52;97266.41;5020607;28;20455;-72
2023/12/30 09:52:45;;;;;;;0.40;0.40;;;;;;;7.76;76.27;97268.69;5020677;28;20116;-72
2023/12/30 09:55:13;;;;;;;0.50;0.50;;;;;;;7.85;75.43;97267.59;5010461;28;20056;-72
2023/12/30 09:57:40;;;;;;;0.30;0.30;;;;;;;7.94;75.34;97269.13;5016125;28;20119;-72
2023/12/30 10:00:09;;;;;;;0.30;0.30;;;;;;;7.90;75.07;97263.34;5010123;28;20064;-72
2023/12/30 10:02:38;;;;;;;0.30;0.30;;;;;;;7.90;74.31;97268.66;5023950;28;20046;-72
2023/12/30 10:05:07;;;;;;;0.32;0.32;;;;;;;7.94;73.58;97269.94;5006442;28;20104;-72
2023/12/30 10:07:35;;;;;;;0.28;0.28;;;;;;;7.95;73.09;97271.59;5013942;28;20421;-72
2023/12/30 10:10:04;;;;;;;0.30;0.30;;;;;;;7.99;72.14;97270.19;5008264;28;20042;-72
2023/12/30 10:12:32;;;;;;;0.45;0.45;;;;;;;8.00;72.60;97266.53;5009657;28;20097;-72
2023/12/30 10:15:00;;;;;;;0.50;0.50;;;;;;;8.03;72.41;97271.50;5010479;28;20074;-72
2023/12/30 10:17:28;;;;;;;0.20;0.20;;;;;;;8.11;72.13;97273.19;5002421;28;20410;-72
2023/12/30 10:19:56;;;;;;;0.40;0.40;;;;;;;8.04;72.18;97273.13;5009885;28;20671;-71
2023/12/30 10:22:24;;;;;;;0.22;0.22;;;;;;;8.02;71.71;97285.78;5011861;28;20450;-72
2023/12/30 10:24:52;;;;;;;0.30;0.30;;;;;;;8.00;71.72;97297.59;5016325;28;20439;-71
2023/12/30 10:27:22;;;;;;;0.20;0.20;;;;;;;8.10;71.91;97293.63;5008770;28;20048;-72
2023/12/30 10:29:54;;;;;;;0.20;0.20;;;;;;;8.11;71.01;97295.28;5005525;28;20049;-72
2023/12/30 10:32:27;;;;;;;0.32;0.32;;;;;;;8.03;71.14;97310.53;5014038;28;20150;-72
2023/12/30 10:34:55;;;;;;;0.20;0.20;;;;;;;8.04;71.22;97307.69;5011937;28;20053;-72
2023/12/30 10:37:24;;;;;;;0.30;0.30;;;;;;;8.07;71.04;97306.50;5011086;28;20509;-72
2023/12/30 10:39:54;;;;;;;0.30;0.30;;;;;;;8.10;70.48;97311.41;5021110;28;20038;-72
2023/12/30 10:42:23;;;;;;;0.28;0.28;;;;;;;8.10;70.60;97312.25;5024316;28;20428;-72
2023/12/30 10:44:51;;;;;;;0.20;0.20;;;;;;;8.07;69.86;97314.47;5008959;28;20056;-72
2023/12/30 10:47:22;;;;;;;0.30;0.30;;;;;;;8.13;69.53;97310.22;5014302;28;20604;-72
2023/12/30 10:49:52;;;;;;;0.30;0.30;;;;;;;8.15;69.42;97309.03;5016608;28;20041;-72
2023/12/30 10:52:23;;;;;;;0.50;0.50;;;;;;;8.16;69.91;97317.84;5021742;28;20089;-72
2023/12/30 10:54:55;;;;;;;0.20;0.20;;;;;;;8.11;69.35;97326.38;5010414;28;20042;-72
2023/12/30 10:57:27;;;;;;;0.20;0.20;;;;;;;8.16;68.06;97318.66;5007712;28;20047;-72
2023/12/30 10:59:57;;;;;;;0.40;0.40;;;;;;;8.16;67.98;97326.66;5020324;28;20042;-72
2023/12/30 11:02:25;;;;;;;0.30;0.30;;;;;;;8.19;66.98;97317.47;5019635;28;20042;-72
2023/12/30 11:04:53;;;;;;;0.30;0.30;;;;;;;8.23;67.35;97324.06;5010500;28;20125;-72
2023/12/30 11:07:25;;;;;;;0.30;0.30;;;;;;;8.25;68.01;97324.69;5015088;28;20104;-72
2023/12/30 11:09:53;;;;;;;0.30;0.30;;;;;;;8.24;68.48;97304.44;5026985;28;20045;-72
2023/12/30 11:12:21;;;;;;;0.30;0.30;;;;;;;8.28;68.49;97329.66;5027388;28;20045;-71
2023/12/30 11:14:50;;;;;;;0.20;0.20;;;;;;;8.23;68.96;97308.09;5017195;22;20050;-73
2023/12/30 11:17:35;;;;;;;0.50;0.50;;;;;;;8.20;68.73;97303.19;4985827;28;20039;-74
2023/12/30 11:20:23;;;;;;;0.40;0.40;;;;;;;8.21;68.66;97310.13;4979352;28;20050;-75
2023/12/30 11:22:51;;;;;;;0.15;0.15;;;;;;;8.16;68.59;97304.56;4988602;28;20049;-73
2023/12/30 11:25:19;;;;;;;0.30;0.30;;;;;;;8.19;68.87;97320.97;4992487;28;20490;-74
2023/12/30 11:27:48;;;;;;;0.20;0.20;;;;;;;8.11;68.85;97315.72;4993443;28;20058;-74
2023/12/30 11:30:18;;;;;;;0.20;0.20;;;;;;;8.10;68.73;97317.56;4998077;28;20045;-73
2023/12/30 11:32:46;;;;;;;0.30;0.30;;;;;;;8.09;68.95;97301.81;4993008;28;20077;-76
2023/12/30 11:35:14;;;;;;;0.32;0.32;;;;;;;8.10;68.91;97303.44;4995411;28;20084;-73
2023/12/30 11:37:44;;;;;;;0.30;0.30;;;;;;;8.09;69.06;97292.03;4987663;28;20042;-74
2023/12/30 11:40:14;;;;;;;0.32;0.32;;;;;;;8.14;68.87;97301.25;5001525;28;20061;-73
2023/12/30 11:42:42;;;;;;;0.20;0.20;;;;;;;8.11;68.94;97299.78;4994593;28;20042;-73
2023/12/30 11:45:15;;;;;;;0.28;0.28;;;;;;;8.09;68.92;97281.38;4990322;28;20074;-73
2023/12/30 11:47:46;;;;;;;0.30;0.30;;;;;;;8.07;68.59;97280.75;4994358;28;20046;-73
2023/12/30 11:50:14;;;;;;;0.30;0.30;;;;;;;8.11;68.97;97281.19;4997013;28;20046;-76
2023/12/30 11:52:46;;;;;;;0.30;0.30;;;;;;;8.09;68.96;97268.09;4988391;28;20047;-73
2023/12/30 11:55:14;;;;;;;0.20;0.20;;;;;;;8.14;68.86;97270.19;4991897;28;20061;-73